Terminal Aerodrome Forecast
Issued by NWS Melbourne, FL

Home | Current Version | Previous Version | Text Only | Print | Product List | Glossary On
Versions: 1 2 3 4 5 6 7 8 9 10 11 12 13 14 15 16
000
FTUS42 KMLB 200700 AAA
TAFMLB
TAF AMD
KMLB 200753Z 2008/2106 00000KT 3SM BR SKC
      TEMPO 2008/2012 1SM BR FEW250
     FM201400 19005KT P6SM FEW100 SCT250
     FM201900 11008KT P6SM SCT100 BKN250=

USA.gov is the U.S. government's official web portal to all federal, state and local government web resources and services.